Time;durP1;ratioP1;P1;durP2;ratioP2;P2;SDS_P1;SDS_P2;PMS_P1;PMS_P2;Temp;Humidity;BMP_temperature;BMP_pressure;BME280_temperature;BME280_humidity;BME280_pressure;Samples;Min_cycle;Max_cycle;Signal;HPM_P1;HPM_P2
2021/11/28 00:01:54;;;;;;;1.30;1.20;;;;;;;;;;5122398;27;20200;-47
2021/11/28 00:04:21;;;;;;;1.27;1.17;;;;;;;;;;5114434;27;20320;-47
2021/11/28 00:06:56;;;;;;;1.20;1.20;;;;;;;;;;5112769;27;21011;-48
2021/11/28 00:09:42;;;;;;;1.10;1.00;;;;;;;;;;5121840;27;20633;-48
2021/11/28 00:12:11;;;;;;;1.20;1.10;;;;;;;;;;5118009;28;21444;-48
2021/11/28 00:14:37;;;;;;;1.52;1.10;;;;;;;;;;5108277;28;20919;-48
2021/11/28 00:17:04;;;;;;;1.30;1.20;;;;;;;;;;5122017;28;20180;-48
2021/11/28 00:19:30;;;;;;;1.52;1.20;;;;;;;;;;5121651;28;20180;-47
2021/11/28 00:21:56;;;;;;;1.35;1.20;;;;;;;;;;5116060;28;20217;-48
2021/11/28 00:24:22;;;;;;;1.40;1.20;;;;;;;;;;5116517;28;20173;-48
2021/11/28 00:26:49;;;;;;;1.27;1.13;;;;;;;;;;5122116;28;20192;-48
2021/11/28 00:29:15;;;;;;;1.52;1.00;;;;;;;;;;5123502;28;20189;-48
2021/11/28 00:31:41;;;;;;;1.67;1.33;;;;;;;;;;5108584;28;20659;-48
2021/11/28 00:34:07;;;;;;;1.00;1.00;;;;;;;;;;5116554;28;20173;-48
2021/11/28 00:36:33;;;;;;;1.42;1.30;;;;;;;;;;5125554;28;20177;-48
2021/11/28 00:39:00;;;;;;;1.20;1.10;;;;;;;;;;5106462;28;20603;-48
2021/11/28 00:41:26;;;;;;;1.30;1.20;;;;;;;;;;5102376;28;20602;-48
2021/11/28 00:43:52;;;;;;;1.20;1.10;;;;;;;;;;5093343;28;20178;-48
2021/11/28 00:46:18;;;;;;;1.20;1.08;;;;;;;;;;5098724;28;20213;-48
2021/11/28 00:48:45;;;;;;;1.52;1.23;;;;;;;;;;5122264;28;20177;-48
2021/11/28 00:53:43;;;;;;;1.08;0.98;;;;;;;;;;5124631;28;20184;-48
2021/11/28 00:56:09;;;;;;;1.20;1.10;;;;;;;;;;5112292;28;20260;-48
2021/11/28 00:58:35;;;;;;;1.17;1.08;;;;;;;;;;5121968;28;20260;-48
2021/11/28 01:01:01;;;;;;;1.67;1.20;;;;;;;;;;5109367;28;20576;-48
2021/11/28 01:03:27;;;;;;;1.02;0.90;;;;;;;;;;5120086;28;20274;-48
2021/11/28 01:05:54;;;;;;;1.50;1.20;;;;;;;;;;5121080;28;20189;-48
2021/11/28 01:08:20;;;;;;;1.30;1.20;;;;;;;;;;5119755;28;20173;-48
2021/11/28 01:10:47;;;;;;;1.30;1.20;;;;;;;;;;5116360;28;20212;-48
2021/11/28 01:13:13;;;;;;;1.83;1.35;;;;;;;;;;5125392;28;20176;-48
2021/11/28 01:15:39;;;;;;;1.60;1.27;;;;;;;;;;5100381;28;20267;-47
2021/11/28 01:18:05;;;;;;;1.13;1.02;;;;;;;;;;5117743;28;20265;-48
2021/11/28 01:20:31;;;;;;;1.60;1.10;;;;;;;;;;5122414;27;20198;-48
2021/11/28 01:22:57;;;;;;;1.80;1.35;;;;;;;;;;5124406;27;20527;-47
2021/11/28 01:25:23;;;;;;;3.55;1.27;;;;;;;;;;5130189;27;20276;-48
2021/11/28 01:27:49;;;;;;;1.80;1.20;;;;;;;;;;5111601;27;20176;-48
2021/11/28 01:30:16;;;;;;;1.85;1.30;;;;;;;;;;5127016;27;20205;-48
2021/11/28 01:32:42;;;;;;;1.40;1.30;;;;;;;;;;5124490;27;20172;-48
2021/11/28 01:35:09;;;;;;;1.67;1.10;;;;;;;;;;5116596;27;20250;-48
2021/11/28 01:37:36;;;;;;;1.13;1.02;;;;;;;;;;5119683;27;20265;-48
2021/11/28 01:40:07;;;;;;;2.08;1.20;;;;;;;;;;5112442;28;20273;-48
2021/11/28 01:42:44;;;;;;;1.95;1.13;;;;;;;;;;5127040;27;20172;-48
2021/11/28 01:45:15;;;;;;;2.13;1.17;;;;;;;;;;5109080;28;20264;-48
2021/11/28 01:47:41;;;;;;;2.03;1.35;;;;;;;;;;5122602;27;20477;-48
2021/11/28 01:50:08;;;;;;;1.30;1.10;;;;;;;;;;5110807;27;20836;-48
2021/11/28 01:52:37;;;;;;;1.52;1.00;;;;;;;;;;5110886;27;20184;-48
2021/11/28 01:55:05;;;;;;;1.30;1.20;;;;;;;;;;5124594;27;20875;-48
2021/11/28 01:57:31;;;;;;;1.13;1.05;;;;;;;;;;5115809;27;20183;-48
2021/11/28 01:59:57;;;;;;;2.08;1.08;;;;;;;;;;5121262;27;20611;-47
2021/11/28 02:02:23;;;;;;;1.38;1.27;;;;;;;;;;5108201;27;20599;-48
2021/11/28 02:04:49;;;;;;;1.63;1.35;;;;;;;;;;5115725;27;20269;-48
2021/11/28 02:07:15;;;;;;;1.10;1.02;;;;;;;;;;5128651;27;20191;-47
2021/11/28 02:09:41;;;;;;;1.00;1.00;;;;;;;;;;5115084;27;20201;-48
2021/11/28 02:12:08;;;;;;;1.85;1.10;;;;;;;;;;5119630;27;20173;-48
2021/11/28 02:14:34;;;;;;;1.20;1.10;;;;;;;;;;5118879;27;20185;-47
2021/11/28 02:17:00;;;;;;;1.13;1.00;;;;;;;;;;5124219;27;20169;-48
2021/11/28 02:19:26;;;;;;;1.42;1.27;;;;;;;;;;5128403;27;20212;-48
2021/11/28 02:21:52;;;;;;;1.10;1.00;;;;;;;;;;5113559;27;20485;-48
2021/11/28 02:24:18;;;;;;;1.30;1.20;;;;;;;;;;5122645;27;20200;-48
2021/11/28 02:26:44;;;;;;;1.02;1.00;;;;;;;;;;5122382;27;20177;-48
2021/11/28 02:29:10;;;;;;;1.60;1.40;;;;;;;;;;5115257;27;20292;-48
2021/11/28 02:31:36;;;;;;;2.38;1.15;;;;;;;;;;5125874;27;20576;-48
2021/11/28 02:34:02;;;;;;;0.90;0.90;;;;;;;;;;5122132;27;20296;-48
2021/11/28 02:36:28;;;;;;;1.17;1.08;;;;;;;;;;5108755;27;20551;-48
2021/11/28 02:38:54;;;;;;;1.55;1.20;;;;;;;;;;5119535;27;20181;-48
2021/11/28 02:41:20;;;;;;;1.13;1.00;;;;;;;;;;5113196;27;20255;-48
2021/11/28 02:43:46;;;;;;;1.08;1.00;;;;;;;;;;5128100;27;20255;-48
2021/11/28 02:46:14;;;;;;;1.10;1.00;;;;;;;;;;5122984;27;20320;-48
2021/11/28 02:48:40;;;;;;;1.20;1.10;;;;;;;;;;5128961;27;20161;-48
2021/11/28 02:51:06;;;;;;;1.55;1.10;;;;;;;;;;5125969;27;20633;-48
2021/11/28 02:53:33;;;;;;;1.10;1.00;;;;;;;;;;5119144;27;20233;-48
2021/11/28 02:56:03;;;;;;;1.10;0.98;;;;;;;;;;5129080;27;20225;-48
2021/11/28 02:58:29;;;;;;;2.08;1.20;;;;;;;;;;5119857;27;20453;-48
2021/11/28 03:01:00;;;;;;;1.10;1.00;;;;;;;;;;5111804;27;20208;-48
2021/11/28 03:03:26;;;;;;;1.08;1.00;;;;;;;;;;5125493;27;20220;-48
2021/11/28 03:05:52;;;;;;;1.58;1.17;;;;;;;;;;5122782;27;20233;-48
2021/11/28 03:08:19;;;;;;;1.23;1.13;;;;;;;;;;5126166;27;20180;-48
2021/11/28 03:10:47;;;;;;;0.90;0.90;;;;;;;;;;5125650;27;20474;-48
2021/11/28 03:13:19;;;;;;;1.13;1.02;;;;;;;;;;5121683;27;20190;-48
2021/11/28 03:15:45;;;;;;;1.58;1.20;;;;;;;;;;5104022;27;20192;-48
2021/11/28 03:18:15;;;;;;;1.50;1.40;;;;;;;;;;5123917;27;20244;-48
2021/11/28 03:20:42;;;;;;;1.10;1.00;;;;;;;;;;5126626;27;20595;-48
2021/11/28 03:23:08;;;;;;;1.20;1.10;;;;;;;;;;5122731;27;20176;-48
2021/11/28 03:25:34;;;;;;;0.80;0.80;;;;;;;;;;5119400;27;20263;-48
2021/11/28 03:28:00;;;;;;;1.20;1.10;;;;;;;;;;5126916;27;20259;-48
2021/11/28 03:30:26;;;;;;;0.85;0.85;;;;;;;;;;5109832;27;20205;-48
2021/11/28 03:32:52;;;;;;;1.27;1.02;;;;;;;;;;5118335;27;20241;-48
2021/11/28 03:35:18;;;;;;;1.35;1.15;;;;;;;;;;5106627;27;20189;-48
2021/11/28 03:37:44;;;;;;;0.90;0.90;;;;;;;;;;5127014;27;20168;-48
2021/11/28 03:40:11;;;;;;;1.27;1.10;;;;;;;;;;5112737;27;20253;-48
2021/11/28 03:42:38;;;;;;;0.90;0.90;;;;;;;;;;5122471;27;20418;-48
2021/11/28 03:45:09;;;;;;;1.00;0.90;;;;;;;;;;5112684;27;20186;-48
2021/11/28 03:47:36;;;;;;;1.23;1.13;;;;;;;;;;5111991;27;20201;-48
2021/11/28 03:50:03;;;;;;;1.00;1.00;;;;;;;;;;5130418;27;20200;-48
2021/11/28 03:52:31;;;;;;;1.33;1.00;;;;;;;;;;5125006;27;20181;-48
2021/11/28 03:54:56;;;;;;;1.42;0.90;;;;;;;;;;5115258;27;20184;-48
2021/11/28 03:57:23;;;;;;;1.42;1.02;;;;;;;;;;5117652;27;20177;-48
2021/11/28 03:59:49;;;;;;;0.88;0.88;;;;;;;;;;5115477;27;20268;-47
2021/11/28 04:02:16;;;;;;;1.00;0.90;;;;;;;;;;5109615;27;20239;-48
2021/11/28 04:04:42;;;;;;;0.98;0.98;;;;;;;;;;5111394;27;20523;-48
2021/11/28 04:07:08;;;;;;;0.80;0.80;;;;;;;;;;5122679;27;20599;-48
2021/11/28 04:09:34;;;;;;;1.23;0.80;;;;;;;;;;5093583;28;20606;-48
2021/11/28 04:12:00;;;;;;;1.27;1.17;;;;;;;;;;5117378;27;20169;-48
2021/11/28 04:14:26;;;;;;;1.38;1.10;;;;;;;;;;5111110;28;20192;-48
2021/11/28 04:16:52;;;;;;;1.55;1.02;;;;;;;;;;5123772;28;20203;-47
2021/11/28 04:19:18;;;;;;;0.90;0.90;;;;;;;;;;5121908;28;20179;-48
2021/11/28 04:21:45;;;;;;;1.15;1.02;;;;;;;;;;5113192;28;20237;-48
2021/11/28 04:24:12;;;;;;;1.48;1.02;;;;;;;;;;5098581;28;20267;-48
2021/11/28 04:26:39;;;;;;;1.17;1.00;;;;;;;;;;5118134;28;20227;-48
2021/11/28 04:29:05;;;;;;;1.02;1.02;;;;;;;;;;5116924;28;20178;-48
2021/11/28 04:31:31;;;;;;;0.98;0.98;;;;;;;;;;5112162;28;20273;-48
2021/11/28 04:33:57;;;;;;;0.88;0.88;;;;;;;;;;5117602;28;20285;-47
2021/11/28 04:36:23;;;;;;;0.93;0.88;;;;;;;;;;5121301;28;20695;-48
2021/11/28 04:38:49;;;;;;;1.15;0.90;;;;;;;;;;5117402;28;20260;-48
2021/11/28 04:41:15;;;;;;;1.27;1.10;;;;;;;;;;5119155;28;20180;-48
2021/11/28 04:43:41;;;;;;;1.00;0.90;;;;;;;;;;5122862;28;20180;-48
2021/11/28 04:46:07;;;;;;;1.27;1.13;;;;;;;;;;5110618;28;20180;-48
2021/11/28 04:48:33;;;;;;;1.67;1.02;;;;;;;;;;5126014;28;20197;-48
2021/11/28 04:51:00;;;;;;;1.40;1.30;;;;;;;;;;5127499;28;20200;-48
2021/11/28 04:53:26;;;;;;;1.35;1.10;;;;;;;;;;5125014;27;20197;-48
2021/11/28 04:55:52;;;;;;;1.20;1.10;;;;;;;;;;5106814;27;20238;-48
2021/11/28 04:58:18;;;;;;;1.33;0.95;;;;;;;;;;5126050;27;20545;-48
2021/11/28 05:00:44;;;;;;;1.40;1.30;;;;;;;;;;5116981;27;20201;-48
2021/11/28 05:03:10;;;;;;;1.63;1.20;;;;;;;;;;5110965;27;20197;-48
2021/11/28 05:05:36;;;;;;;1.67;1.20;;;;;;;;;;5115843;27;20216;-47
2021/11/28 05:08:02;;;;;;;1.25;1.15;;;;;;;;;;5120697;27;20208;-48
2021/11/28 05:10:28;;;;;;;1.50;0.93;;;;;;;;;;5116419;27;20242;-48
2021/11/28 05:12:54;;;;;;;1.10;1.00;;;;;;;;;;5120466;27;20177;-48
2021/11/28 05:15:20;;;;;;;1.27;1.00;;;;;;;;;;5111953;27;20386;-48
2021/11/28 05:17:46;;;;;;;1.80;1.30;;;;;;;;;;5114806;27;20169;-48
2021/11/28 05:20:14;;;;;;;1.10;1.00;;;;;;;;;;5122027;27;20487;-48
2021/11/28 05:22:41;;;;;;;1.45;1.25;;;;;;;;;;5128737;27;20251;-48
2021/11/28 05:25:08;;;;;;;1.30;1.20;;;;;;;;;;5122336;27;20273;-48
2021/11/28 05:27:34;;;;;;;1.30;1.20;;;;;;;;;;5118110;27;20496;-48
2021/11/28 05:30:00;;;;;;;1.30;1.17;;;;;;;;;;5118871;27;20643;-48
2021/11/28 05:32:26;;;;;;;1.30;1.20;;;;;;;;;;5127144;27;20191;-47
2021/11/28 05:34:52;;;;;;;1.40;1.10;;;;;;;;;;5124709;27;20200;-48
2021/11/28 05:37:19;;;;;;;1.20;1.10;;;;;;;;;;5123419;27;20207;-47
2021/11/28 05:39:45;;;;;;;1.35;1.25;;;;;;;;;;5112706;28;20170;-47
2021/11/28 05:42:11;;;;;;;1.10;1.00;;;;;;;;;;5124442;27;20173;-48
2021/11/28 05:44:37;;;;;;;1.05;0.80;;;;;;;;;;5127908;27;20875;-47
2021/11/28 05:47:03;;;;;;;1.70;1.23;;;;;;;;;;5114137;27;20508;-47
2021/11/28 05:49:30;;;;;;;3.47;1.50;;;;;;;;;;5112593;27;20283;-48
2021/11/28 05:51:56;;;;;;;1.73;1.55;;;;;;;;;;5122395;27;20203;-48
2021/11/28 05:54:22;;;;;;;1.30;1.17;;;;;;;;;;5111116;27;20452;-48
2021/11/28 05:56:48;;;;;;;1.73;1.27;;;;;;;;;;5120838;27;20176;-48
2021/11/28 05:59:14;;;;;;;5.95;3.10;;;;;;;;;;5105899;27;20473;-47
2021/11/28 06:01:40;;;;;;;4.45;3.10;;;;;;;;;;5110870;27;20256;-47
2021/11/28 06:04:06;;;;;;;3.25;3.00;;;;;;;;;;5124585;27;20189;-47
2021/11/28 06:06:32;;;;;;;3.72;3.42;;;;;;;;;;5107653;27;20188;-48
2021/11/28 06:08:58;;;;;;;3.78;3.22;;;;;;;;;;5127523;27;20559;-47
2021/11/28 06:11:24;;;;;;;4.25;3.22;;;;;;;;;;5120690;27;20267;-47
2021/11/28 06:13:51;;;;;;;3.20;2.90;;;;;;;;;;5130320;27;20263;-48
2021/11/28 06:16:17;;;;;;;3.35;3.08;;;;;;;;;;5112992;27;20181;-47
2021/11/28 06:18:44;;;;;;;3.30;3.00;;;;;;;;;;5128320;27;20175;-48
2021/11/28 06:21:10;;;;;;;3.03;2.83;;;;;;;;;;5125063;27;20455;-48
2021/11/28 06:23:36;;;;;;;3.97;3.17;;;;;;;;;;5122158;27;20195;-48
2021/11/28 06:26:02;;;;;;;3.00;2.65;;;;;;;;;;5113996;27;20208;-48
2021/11/28 06:28:28;;;;;;;3.15;2.78;;;;;;;;;;5126812;27;20225;-48
2021/11/28 06:30:54;;;;;;;3.33;2.65;;;;;;;;;;5124737;27;20505;-48
2021/11/28 06:33:20;;;;;;;4.78;2.97;;;;;;;;;;5116138;27;20174;-48
2021/11/28 06:35:46;;;;;;;3.75;2.67;;;;;;;;;;5123479;27;20200;-48
2021/11/28 06:38:12;;;;;;;2.60;2.40;;;;;;;;;;5097366;27;20260;-48
2021/11/28 06:40:38;;;;;;;4.25;2.78;;;;;;;;;;5126242;27;20267;-48
2021/11/28 06:43:04;;;;;;;4.43;2.63;;;;;;;;;;5124921;27;20176;-48
2021/11/28 06:45:30;;;;;;;3.25;2.53;;;;;;;;;;5113415;27;20203;-48
2021/11/28 06:47:56;;;;;;;3.33;2.50;;;;;;;;;;5126952;27;20230;-48
2021/11/28 06:50:22;;;;;;;2.92;2.63;;;;;;;;;;5106956;27;21835;-48
2021/11/28 06:52:48;;;;;;;3.88;2.28;;;;;;;;;;5123373;27;20173;-48
2021/11/28 06:55:14;;;;;;;2.80;2.30;;;;;;;;;;5101004;27;20178;-48
2021/11/28 06:57:40;;;;;;;3.97;2.35;;;;;;;;;;5121419;27;20173;-48
2021/11/28 07:00:07;;;;;;;4.00;2.20;;;;;;;;;;5121900;27;20237;-48
2021/11/28 07:02:33;;;;;;;3.20;2.22;;;;;;;;;;5123957;27;21250;-48
2021/11/28 07:04:59;;;;;;;4.07;2.50;;;;;;;;;;5119693;27;20181;-48
2021/11/28 07:07:26;;;;;;;3.90;2.42;;;;;;;;;;5123650;27;20244;-48
2021/11/28 07:09:52;;;;;;;3.70;2.00;;;;;;;;;;5125722;27;20600;-48
2021/11/28 07:12:19;;;;;;;2.67;2.40;;;;;;;;;;5120818;27;20176;-48
2021/11/28 07:14:46;;;;;;;5.30;2.60;;;;;;;;;;5123915;27;20228;-48
2021/11/28 07:17:12;;;;;;;3.25;2.40;;;;;;;;;;5115833;27;20262;-48
2021/11/28 07:19:38;;;;;;;3.25;2.30;;;;;;;;;;5096135;28;20173;-48
2021/11/28 07:22:04;;;;;;;3.08;2.50;;;;;;;;;;5117300;27;20183;-52
2021/11/28 07:24:30;;;;;;;4.78;2.78;;;;;;;;;;5133827;27;20199;-48
2021/11/28 07:26:56;;;;;;;3.95;2.85;;;;;;;;;;5124820;27;20626;-48
2021/11/28 07:29:22;;;;;;;3.88;3.33;;;;;;;;;;5108810;27;20540;-48
2021/11/28 07:31:48;;;;;;;5.90;3.63;;;;;;;;;;5119781;27;20203;-48
2021/11/28 07:34:15;;;;;;;4.35;3.30;;;;;;;;;;5123258;27;20208;-48
2021/11/28 07:36:42;;;;;;;7.07;3.67;;;;;;;;;;5113975;27;20206;-47
2021/11/28 07:39:08;;;;;;;4.78;3.63;;;;;;;;;;5113399;27;20235;-48
2021/11/28 07:41:34;;;;;;;4.10;3.20;;;;;;;;;;5112576;27;20177;-48
2021/11/28 07:44:00;;;;;;;6.85;3.70;;;;;;;;;;5122355;27;20165;-48
2021/11/28 07:46:26;;;;;;;8.00;3.78;;;;;;;;;;5123225;27;20752;-48
2021/11/28 07:48:52;;;;;;;4.18;3.42;;;;;;;;;;5123347;27;20181;-48
2021/11/28 07:51:18;;;;;;;3.92;3.42;;;;;;;;;;5106607;27;20220;-48
2021/11/28 07:53:49;;;;;;;5.60;3.22;;;;;;;;;;5125544;27;20183;-48
2021/11/28 07:56:17;;;;;;;7.97;3.13;;;;;;;;;;5108154;27;20657;-47
2021/11/28 07:58:43;;;;;;;6.63;3.25;;;;;;;;;;5117852;27;20279;-44
2021/11/28 08:01:09;;;;;;;4.20;3.58;;;;;;;;;;5110152;27;20769;-45
2021/11/28 08:03:35;;;;;;;4.05;3.28;;;;;;;;;;5106466;27;20204;-42
2021/11/28 08:06:01;;;;;;;6.20;3.80;;;;;;;;;;5114080;27;20275;-43
2021/11/28 08:08:27;;;;;;;5.63;3.55;;;;;;;;;;5124988;27;20185;-42
2021/11/28 08:10:54;;;;;;;6.43;3.15;;;;;;;;;;5115117;27;20198;-43
2021/11/28 08:13:20;;;;;;;7.10;3.60;;;;;;;;;;5123890;27;20176;-43
2021/11/28 08:15:46;;;;;;;5.30;3.63;;;;;;;;;;5111358;28;20184;-45
2021/11/28 08:18:12;;;;;;;7.22;3.75;;;;;;;;;;5102360;28;20196;-44
2021/11/28 08:20:38;;;;;;;10.30;3.47;;;;;;;;;;5111440;28;20523;-48
2021/11/28 08:23:05;;;;;;;7.15;3.42;;;;;;;;;;5114720;28;20255;-42
2021/11/28 08:25:31;;;;;;;6.57;3.53;;;;;;;;;;5125093;28;20239;-47
2021/11/28 08:27:57;;;;;;;6.63;3.63;;;;;;;;;;5119226;27;20195;-42
2021/11/28 08:30:24;;;;;;;8.77;3.72;;;;;;;;;;5104190;27;20243;-42
2021/11/28 08:32:50;;;;;;;7.05;3.85;;;;;;;;;;5116710;27;20328;-42
2021/11/28 08:35:18;;;;;;;7.13;3.67;;;;;;;;;;5110458;27;20477;-43
2021/11/28 08:37:44;;;;;;;11.73;4.10;;;;;;;;;;5117660;27;20247;-48
2021/11/28 08:40:12;;;;;;;6.90;3.65;;;;;;;;;;5126006;27;20264;-48
2021/11/28 08:42:38;;;;;;;5.82;3.63;;;;;;;;;;5116586;27;20180;-48
2021/11/28 08:45:06;;;;;;;5.40;3.80;;;;;;;;;;5102036;27;20168;-48
2021/11/28 08:47:32;;;;;;;6.10;3.60;;;;;;;;;;5112500;27;20188;-48
2021/11/28 08:49:58;;;;;;;6.65;3.58;;;;;;;;;;5114155;27;20248;-47
2021/11/28 08:52:24;;;;;;;7.15;3.72;;;;;;;;;;5125712;27;20210;-48
2021/11/28 08:54:50;;;;;;;5.20;3.03;;;;;;;;;;5124509;27;20670;-48
2021/11/28 08:57:17;;;;;;;5.90;3.47;;;;;;;;;;5124371;27;20188;-48
2021/11/28 08:59:43;;;;;;;6.88;3.70;;;;;;;;;;5122819;27;20557;-47
2021/11/28 09:02:10;;;;;;;6.07;3.58;;;;;;;;;;5113980;27;20214;-48
2021/11/28 09:04:37;;;;;;;7.70;3.45;;;;;;;;;;5116497;27;20193;-48
2021/11/28 09:07:03;;;;;;;4.85;3.63;;;;;;;;;;5124466;27;20716;-48
2021/11/28 09:09:29;;;;;;;5.13;3.42;;;;;;;;;;5124006;27;20462;-47
2021/11/28 09:11:55;;;;;;;6.47;4.03;;;;;;;;;;5118441;27;20772;-48
2021/11/28 09:14:21;;;;;;;5.55;3.45;;;;;;;;;;5129061;27;20202;-48
2021/11/28 09:16:47;;;;;;;4.45;3.65;;;;;;;;;;5120431;27;20177;-48
2021/11/28 09:21:49;;;;;;;6.60;3.60;;;;;;;;;;5114965;27;20189;-48
2021/11/28 09:27:00;;;;;;;6.90;3.80;;;;;;;;;;5121196;27;20218;-48
2021/11/28 09:29:26;;;;;;;7.28;3.20;;;;;;;;;;5111649;27;20303;-48
2021/11/28 09:31:52;;;;;;;5.30;3.47;;;;;;;;;;5109953;27;20184;-48
2021/11/28 09:34:19;;;;;;;5.95;3.60;;;;;;;;;;5105765;27;20218;-48
2021/11/28 09:36:45;;;;;;;9.85;3.45;;;;;;;;;;5109047;27;20185;-48
2021/11/28 09:39:11;;;;;;;6.28;3.97;;;;;;;;;;5114926;27;20165;-48
2021/11/28 09:41:38;;;;;;;5.35;3.70;;;;;;;;;;5101198;28;20181;-48
2021/11/28 09:44:08;;;;;;;5.10;3.42;;;;;;;;;;5110226;28;20447;-48
2021/11/28 09:46:35;;;;;;;5.40;3.20;;;;;;;;;;5102262;28;20190;-48
2021/11/28 09:49:03;;;;;;;6.70;3.63;;;;;;;;;;5108223;28;20231;-48
2021/11/28 09:51:29;;;;;;;5.68;3.60;;;;;;;;;;5111927;27;20190;-48
2021/11/28 09:53:59;;;;;;;4.15;3.03;;;;;;;;;;5128283;27;20247;-48
2021/11/28 09:56:27;;;;;;;4.85;3.60;;;;;;;;;;5118738;27;20177;-48
2021/11/28 09:58:53;;;;;;;5.47;3.70;;;;;;;;;;5115711;27;20188;-48
2021/11/28 10:01:19;;;;;;;5.35;3.55;;;;;;;;;;5104711;27;20197;-48
2021/11/28 10:03:45;;;;;;;4.07;3.42;;;;;;;;;;5122877;27;20277;-48
2021/11/28 10:06:11;;;;;;;4.28;3.08;;;;;;;;;;5113601;27;20217;-48
2021/11/28 10:08:37;;;;;;;5.03;3.50;;;;;;;;;;5102266;27;20194;-48
2021/11/28 10:11:03;;;;;;;9.68;3.60;;;;;;;;;;5109892;27;20220;-48
2021/11/28 10:13:30;;;;;;;5.53;3.65;;;;;;;;;;5117794;27;20185;-47
2021/11/28 10:15:56;;;;;;;7.13;3.75;;;;;;;;;;5121071;27;20188;-48
2021/11/28 10:18:22;;;;;;;7.47;3.90;;;;;;;;;;5122786;27;20241;-48
2021/11/28 10:20:51;;;;;;;9.10;3.83;;;;;;;;;;5106647;27;20181;-49
2021/11/28 10:23:17;;;;;;;3.85;3.47;;;;;;;;;;5120489;27;20177;-47
2021/11/28 10:25:43;;;;;;;5.05;3.70;;;;;;;;;;5117006;27;20645;-48
2021/11/28 10:28:10;;;;;;;5.82;3.97;;;;;;;;;;5110610;27;20182;-47
2021/11/28 10:30:37;;;;;;;8.00;4.00;;;;;;;;;;5113210;27;20494;-47
2021/11/28 10:33:22;;;;;;;5.32;4.32;;;;;;;;;;5117890;27;20533;-47
2021/11/28 10:36:02;;;;;;;5.63;3.85;;;;;;;;;;5105850;27;20177;-47
2021/11/28 10:38:40;;;;;;;7.35;3.78;;;;;;;;;;5108107;27;20483;-48
2021/11/28 10:41:19;;;;;;;6.75;3.90;;;;;;;;;;5128578;27;20559;-48
2021/11/28 10:43:45;;;;;;;6.80;4.30;;;;;;;;;;5115965;27;20173;-47
2021/11/28 10:46:32;;;;;;;4.63;3.65;;;;;;;;;;5112360;28;20495;-49
2021/11/28 10:49:05;;;;;;;4.70;3.60;;;;;;;;;;5119013;27;20173;-48
2021/11/28 10:51:33;;;;;;;7.07;4.38;;;;;;;;;;5125390;27;20201;-48
2021/11/28 10:53:59;;;;;;;5.30;4.20;;;;;;;;;;5116531;27;20184;-47
2021/11/28 10:56:25;;;;;;;5.38;4.07;;;;;;;;;;5118102;27;20174;-47
2021/11/28 10:58:52;;;;;;;13.30;7.60;;;;;;;;;;5121262;27;20556;-48
2021/11/28 11:01:18;;;;;;;11.75;6.38;;;;;;;;;;5114858;27;20226;-47
2021/11/28 11:03:50;;;;;;;9.02;6.22;;;;;;;;;;5109000;27;20192;-47
2021/11/28 11:06:24;;;;;;;10.93;6.35;;;;;;;;;;5110758;27;20526;-48
2021/11/28 11:08:53;;;;;;;7.78;5.10;;;;;;;;;;5117467;27;20243;-48
2021/11/28 11:11:19;;;;;;;7.07;5.60;;;;;;;;;;5120047;27;20299;-48
2021/11/28 11:13:56;;;;;;;8.40;5.07;;;;;;;;;;5128378;27;20168;-48
2021/11/28 11:16:33;;;;;;;7.53;5.40;;;;;;;;;;5119029;27;20485;-48
2021/11/28 11:19:17;;;;;;;7.40;5.60;;;;;;;;;;5122972;27;20180;-47
2021/11/28 11:22:02;;;;;;;7.95;5.30;;;;;;;;;;5118543;27;20215;-48
2021/11/28 11:24:28;;;;;;;9.27;5.15;;;;;;;;;;5134183;27;20211;-47
2021/11/28 11:26:55;;;;;;;6.65;4.57;;;;;;;;;;5116610;27;20211;-48
2021/11/28 11:29:21;;;;;;;7.07;5.20;;;;;;;;;;5123777;27;20177;-48
2021/11/28 11:31:55;;;;;;;6.38;5.03;;;;;;;;;;5122350;27;20181;-48
2021/11/28 11:34:22;;;;;;;7.78;5.43;;;;;;;;;;5112790;27;20176;-47
2021/11/28 11:36:57;;;;;;;15.77;7.53;;;;;;;;;;5111557;27;20291;-48
2021/11/28 11:39:24;;;;;;;19.67;9.80;;;;;;;;;;5114638;27;20175;-48
2021/11/28 11:41:51;;;;;;;17.80;8.23;;;;;;;;;;5112681;27;20725;-48
2021/11/28 11:44:17;;;;;;;15.80;8.18;;;;;;;;;;5118252;27;20165;-47
2021/11/28 11:46:47;;;;;;;13.50;7.05;;;;;;;;;;5110892;27;20192;-48
2021/11/28 11:49:14;;;;;;;16.02;7.18;;;;;;;;;;5115290;27;20169;-48
2021/11/28 11:51:41;;;;;;;12.38;6.90;;;;;;;;;;5122426;27;20169;-48
2021/11/28 11:54:08;;;;;;;10.75;6.90;;;;;;;;;;5103647;27;20498;-48
2021/11/28 11:56:35;;;;;;;10.73;6.15;;;;;;;;;;5116239;27;20208;-48
2021/11/28 11:59:10;;;;;;;11.68;5.85;;;;;;;;;;5115311;27;20222;-48
2021/11/28 12:01:39;;;;;;;11.57;6.13;;;;;;;;;;5115107;27;20290;-48
2021/11/28 12:04:05;;;;;;;16.42;6.03;;;;;;;;;;5114493;27;20238;-48
2021/11/28 12:06:48;;;;;;;10.57;6.00;;;;;;;;;;5121851;27;20196;-48
2021/11/28 12:09:29;;;;;;;14.45;5.18;;;;;;;;;;5112048;28;20200;-48
2021/11/28 12:11:55;;;;;;;9.43;5.32;;;;;;;;;;5109283;28;20196;-48
2021/11/28 12:14:21;;;;;;;7.70;5.18;;;;;;;;;;5114668;28;20455;-48
2021/11/28 12:16:47;;;;;;;7.85;4.53;;;;;;;;;;5112225;28;20220;-48
2021/11/28 12:19:33;;;;;;;10.50;5.53;;;;;;;;;;5120873;28;20183;-48
2021/11/28 12:21:59;;;;;;;7.60;4.95;;;;;;;;;;5103379;28;20256;-48
2021/11/28 12:24:28;;;;;;;8.65;4.97;;;;;;;;;;5125543;28;20204;-48
2021/11/28 12:27:02;;;;;;;8.32;4.85;;;;;;;;;;5119168;28;20218;-48
2021/11/28 12:29:28;;;;;;;8.82;4.45;;;;;;;;;;5112947;28;20205;-48
2021/11/28 12:32:17;;;;;;;12.55;5.28;;;;;;;;;;5120465;28;20215;-48
2021/11/28 12:34:52;;;;;;;14.35;5.55;;;;;;;;;;5105955;28;20230;-48
2021/11/28 12:37:33;;;;;;;10.45;5.13;;;;;;;;;;5112190;28;20169;-48
2021/11/28 12:40:17;;;;;;;7.82;4.68;;;;;;;;;;5116139;28;20184;-48
2021/11/28 12:42:43;;;;;;;9.85;4.70;;;;;;;;;;5114538;28;20218;-48
2021/11/28 12:45:10;;;;;;;9.48;4.90;;;;;;;;;;5121334;28;20603;-48
2021/11/28 12:47:37;;;;;;;10.43;4.82;;;;;;;;;;5113904;28;20184;-48
2021/11/28 12:50:03;;;;;;;9.02;4.78;;;;;;;;;;5121666;28;21820;-48
2021/11/28 12:52:39;;;;;;;9.35;4.90;;;;;;;;;;5116286;28;20264;-47
2021/11/28 12:55:08;;;;;;;11.20;4.70;;;;;;;;;;5117867;28;20192;-48
2021/11/28 12:57:38;;;;;;;8.70;4.93;;;;;;;;;;5114008;28;20201;-48
2021/11/28 13:00:17;;;;;;;6.90;4.80;;;;;;;;;;5112767;28;20276;-48
2021/11/28 13:02:45;;;;;;;9.95;5.90;;;;;;;;;;5118043;28;20214;-48
2021/11/28 13:05:30;;;;;;;8.10;5.68;;;;;;;;;;5113287;28;20272;-48
2021/11/28 13:08:02;;;;;;;6.60;5.57;;;;;;;;;;5125798;28;20175;-48
2021/11/28 13:10:47;;;;;;;8.48;5.25;;;;;;;;;;5126556;28;20201;-48
2021/11/28 13:13:15;;;;;;;7.22;4.68;;;;;;;;;;5119408;28;20178;-48
2021/11/28 13:15:52;;;;;;;7.07;4.47;;;;;;;;;;5127787;27;20231;-48
2021/11/28 13:18:21;;;;;;;7.32;4.60;;;;;;;;;;5117458;27;20584;-48
2021/11/28 13:20:48;;;;;;;7.75;4.50;;;;;;;;;;5115816;27;20177;-48
2021/11/28 13:23:18;;;;;;;6.47;4.18;;;;;;;;;;5124487;27;20180;-48
2021/11/28 13:25:49;;;;;;;7.25;4.40;;;;;;;;;;5117488;27;20515;-48
2021/11/28 13:28:17;;;;;;;7.50;4.78;;;;;;;;;;5124187;27;20255;-48
2021/11/28 13:30:45;;;;;;;9.18;4.43;;;;;;;;;;5114859;27;20237;-48
2021/11/28 13:33:13;;;;;;;6.72;4.10;;;;;;;;;;5122384;27;20177;-48
2021/11/28 13:35:40;;;;;;;5.22;4.40;;;;;;;;;;5121046;27;20180;-48
2021/11/28 13:38:19;;;;;;;6.65;4.25;;;;;;;;;;5125058;27;21024;-48
2021/11/28 13:41:04;;;;;;;6.65;3.92;;;;;;;;;;5104403;27;20185;-48
2021/11/28 13:43:35;;;;;;;6.95;4.20;;;;;;;;;;5128202;27;20193;-48
2021/11/28 13:46:01;;;;;;;6.07;3.97;;;;;;;;;;5126788;27;20609;-48
2021/11/28 13:48:46;;;;;;;4.72;3.60;;;;;;;;;;5124283;27;20187;-48
2021/11/28 13:51:13;;;;;;;6.90;3.80;;;;;;;;;;5111587;27;20209;-47
2021/11/28 13:53:53;;;;;;;5.65;4.07;;;;;;;;;;5128589;27;20172;-47
2021/11/28 13:56:19;;;;;;;9.00;6.65;;;;;;;;;;5132749;27;20206;-47
2021/11/28 13:59:00;;;;;;;12.73;6.82;;;;;;;;;;5121808;27;20173;-47
2021/11/28 14:01:26;;;;;;;8.45;6.45;;;;;;;;;;5125166;27;20460;-48
2021/11/28 14:03:52;;;;;;;11.43;7.43;;;;;;;;;;5121913;27;20619;-48
2021/11/28 14:06:18;;;;;;;9.65;7.53;;;;;;;;;;5119493;27;20198;-48
2021/11/28 14:08:44;;;;;;;9.07;7.57;;;;;;;;;;5127383;27;20181;-48
2021/11/28 14:11:14;;;;;;;12.70;8.40;;;;;;;;;;5115133;27;20587;-48
2021/11/28 14:13:47;;;;;;;10.60;7.75;;;;;;;;;;5105762;27;20433;-48
2021/11/28 14:16:13;;;;;;;8.93;7.72;;;;;;;;;;5117546;27;20226;-47
2021/11/28 14:18:43;;;;;;;9.40;7.05;;;;;;;;;;5115557;27;20182;-47
2021/11/28 14:21:09;;;;;;;8.63;7.10;;;;;;;;;;5110772;27;20450;-47
2021/11/28 14:23:35;;;;;;;8.77;6.38;;;;;;;;;;5123685;27;20191;-47
2021/11/28 14:26:01;;;;;;;9.25;6.38;;;;;;;;;;5112930;27;20557;-47
2021/11/28 14:28:30;;;;;;;10.23;6.50;;;;;;;;;;5121456;27;20182;-47
2021/11/28 14:31:01;;;;;;;9.93;5.82;;;;;;;;;;5121171;27;20715;-48
2021/11/28 14:33:36;;;;;;;8.35;5.97;;;;;;;;;;5119689;27;20189;-47
2021/11/28 14:36:15;;;;;;;9.40;5.85;;;;;;;;;;5118779;27;20490;-47
2021/11/28 14:38:47;;;;;;;7.55;5.70;;;;;;;;;;5113873;27;20209;-47
2021/11/28 14:41:14;;;;;;;7.20;5.25;;;;;;;;;;5120681;27;20211;-47
2021/11/28 14:43:54;;;;;;;7.03;5.35;;;;;;;;;;5112177;27;20180;-48
2021/11/28 14:46:23;;;;;;;5.93;5.00;;;;;;;;;;5120231;27;20211;-48
2021/11/28 14:49:00;;;;;;;9.43;5.18;;;;;;;;;;5116743;27;20176;-47
2021/11/28 14:51:32;;;;;;;5.57;4.75;;;;;;;;;;5115181;27;20643;-47
2021/11/28 14:54:03;;;;;;;6.18;4.63;;;;;;;;;;5104053;28;20673;-47
2021/11/28 14:56:30;;;;;;;5.15;4.53;;;;;;;;;;5113901;27;20204;-47